EDT,Max TemperatureF,Mean TemperatureF,Min TemperatureF,Max Dew PointF,MeanDew PointF,Min DewpointF,Max Humidity, Mean Humidity, Min Humidity, Max Sea Level PressureIn, Mean Sea Level PressureIn, Min Sea Level PressureIn, Max VisibilityMiles, Mean VisibilityMiles, Min VisibilityMiles, Max Wind SpeedMPH, Mean Wind SpeedMPH, Max Gust SpeedMPH,PrecipitationIn, CloudCover, Events, WindDirDegrees
2013-5-1,80,66,51,59,54,50,100,66,39,30.22,30.16,30.09,10,10,4,9,2,,0.03,1,,127
2013-5-2,73,64,55,55,51,48,77,60,44,30.25,30.19,30.13,10,10,10,9,4,,0.00,1,,141
2013-5-3,75,66,57,54,49,36,82,56,31,30.13,30.07,30.00,10,10,10,14,8,23,0.00,1,,148
2013-5-4,73,63,53,52,44,36,94,55,36,30.03,29.99,29.92,10,10,10,25,9,31,0.01,3,Rain,132
2013-5-5,53,50,46,54,49,45,100,95,87,30.02,29.94,29.90,10,8,5,15,9,21,2.07,8,Rain,92
2013-5-6,64,58,51,55,53,50,100,89,68,29.94,29.89,29.85,10,9,5,21,11,25,0.35,8,Rain,87
2013-5-7,66,58,51,57,54,52,100,90,68,30.01,29.96,29.91,10,8,0,10,3,,0.07,8,Fog-Rain,56
2013-5-8,71,61,51,59,56,52,100,91,53,30.06,30.00,29.93,10,6,0,15,2,18,0.09,7,Fog-Rain,323
2013-5-9,77,64,51,61,56,52,100,71,47,30.09,30.05,30.01,10,8,0,9,5,,0.00,3,Fog,246
2013-5-10,68,64,60,63,59,55,100,86,64,30.03,29.96,29.89,10,9,3,14,8,26,0.48,6,Rain,234
2013-5-11,60,56,51,61,54,48,100,90,72,29.99,29.93,29.88,10,8,2,12,6,18,0.19,7,Rain,287
2013-5-12,57,46,35,52,36,32,100,65,38,30.16,30.09,29.99,10,10,7,14,6,23,0.00,3,,310
2013-5-13,60,46,33,41,34,30,100,63,34,30.23,30.18,30.14,10,10,10,17,6,24,0.00,2,,287
2013-5-14,78,58,37,55,45,36,100,62,42,30.19,30.07,29.91,10,10,10,17,7,24,0.00,1,,227
2013-5-15,82,73,64,61,55,50,73,54,35,30.03,29.98,29.93,10,10,10,20,12,26,0.00,0,,260
2013-5-16,73,66,59,64,57,50,100,78,52,30.06,30.00,29.95,10,9,1,14,7,22,0.16,2,Rain,252
2013-5-17,77,66,55,68,61,55,100,85,54,30.10,30.07,30.03,10,8,1,9,1,,0.00,4,Rain,207
2013-5-18,77,70,62,66,64,61,100,86,61,30.09,30.05,30.00,10,8,2,12,4,,0.04,7,Rain,169
2013-5-19,80,72,64,70,66,64,100,87,58,30.06,30.01,29.96,10,9,4,8,2,,0.04,5,Rain,212
2013-5-20,82,73,64,70,66,61,100,79,62,30.09,30.02,29.98,10,10,10,10,6,,0.00,2,,229
2013-5-21,86,75,64,68,65,61,94,79,48,30.03,29.96,29.90,10,10,5,15,7,30,0.02,1,Rain,229
2013-5-22,77,70,62,64,62,59,100,81,61,29.94,29.89,29.83,10,10,7,13,7,18,0.10,3,Rain,235
2013-5-23,71,65,57,63,60,54,100,85,60,30.04,29.94,29.88,10,10,7,14,7,24,0.00,6,,283
2013-5-24,64,54,44,52,42,37,100,66,39,30.33,30.25,30.05,10,10,10,17,8,22,0.01,4,,14
2013-5-25,64,52,41,52,43,37,100,69,42,30.40,30.33,30.23,10,10,10,8,2,,0.00,3,,100
2013-5-26,69,60,50,55,50,43,100,70,46,30.33,30.28,30.21,10,10,5,5,1,,0.01,5,Rain,62
2013-5-27,82,70,59,59,53,46,77,57,37,30.24,30.14,30.05,10,10,10,16,6,22,0.00,3,,192
2013-5-28,82,74,66,61,59,54,83,59,42,30.13,30.08,30.02,10,10,10,17,8,28,0.00,2,Rain,237
2013-5-29,84,76,68,66,62,57,88,63,51,30.18,30.13,30.07,10,10,10,14,7,23,0.00,1,,230
2013-5-30,87,74,62,64,63,61,100,68,43,30.22,30.15,30.08,10,10,10,13,5,18,0.00,0,,211
2013-5-31,86,75,64,70,63,61,94,71,45,30.15,30.09,30.03,10,10,7,23,7,30,0.07,2,Rain,213